sensor_id;sensor_type;location;lat;lon;timestamp;temperature;humidity
19248;DHT22;9758;48.640;8.148;2023-08-06T00:00:42;18.90;54.70
19248;DHT22;9758;48.640;8.148;2023-08-06T00:03:09;18.90;54.60
19248;DHT22;9758;48.640;8.148;2023-08-06T00:05:36;18.90;54.60
19248;DHT22;9758;48.640;8.148;2023-08-06T00:08:03;19.00;54.60
19248;DHT22;9758;48.640;8.148;2023-08-06T00:10:29;18.90;54.60
19248;DHT22;9758;48.640;8.148;2023-08-06T00:12:56;18.90;54.50
19248;DHT22;9758;48.640;8.148;2023-08-06T00:15:25;19.00;54.60
19248;DHT22;9758;48.640;8.148;2023-08-06T00:17:53;19.00;54.60
19248;DHT22;9758;48.640;8.148;2023-08-06T00:20:20;19.00;54.60
19248;DHT22;9758;48.640;8.148;2023-08-06T00:22:47;19.00;54.60
19248;DHT22;9758;48.640;8.148;2023-08-06T00:25:14;19.00;54.60
19248;DHT22;9758;48.640;8.148;2023-08-06T00:27:41;19.00;54.60
19248;DHT22;9758;48.640;8.148;2023-08-06T00:30:08;19.00;54.50
19248;DHT22;9758;48.640;8.148;2023-08-06T00:32:35;19.10;54.50
19248;DHT22;9758;48.640;8.148;2023-08-06T00:35:05;19.10;54.50
19248;DHT22;9758;48.640;8.148;2023-08-06T00:37:32;19.10;54.50
19248;DHT22;9758;48.640;8.148;2023-08-06T00:39:59;19.10;54.50
19248;DHT22;9758;48.640;8.148;2023-08-06T00:42:26;19.10;54.50
19248;DHT22;9758;48.640;8.148;2023-08-06T00:44:53;19.10;54.40
19248;DHT22;9758;48.640;8.148;2023-08-06T00:47:20;19.10;54.40
19248;DHT22;9758;48.640;8.148;2023-08-06T00:49:49;19.10;54.40
19248;DHT22;9758;48.640;8.148;2023-08-06T00:52:18;19.10;54.50
19248;DHT22;9758;48.640;8.148;2023-08-06T00:54:45;19.10;54.40
19248;DHT22;9758;48.640;8.148;2023-08-06T00:57:12;19.10;54.30
19248;DHT22;9758;48.640;8.148;2023-08-06T00:59:40;19.10;54.30
19248;DHT22;9758;48.640;8.148;2023-08-06T01:02:07;19.10;55.00
19248;DHT22;9758;48.640;8.148;2023-08-06T01:04:35;19.10;54.40
19248;DHT22;9758;48.640;8.148;2023-08-06T01:07:08;19.10;54.30
19248;DHT22;9758;48.640;8.148;2023-08-06T01:09:48;19.10;54.30
19248;DHT22;9758;48.640;8.148;2023-08-06T01:12:23;19.10;54.30
19248;DHT22;9758;48.640;8.148;2023-08-06T01:14:57;19.10;54.40
19248;DHT22;9758;48.640;8.148;2023-08-06T01:17:27;19.10;54.40
19248;DHT22;9758;48.640;8.148;2023-08-06T01:19:56;19.20;54.40
19248;DHT22;9758;48.640;8.148;2023-08-06T01:22:24;19.10;54.40
19248;DHT22;9758;48.640;8.148;2023-08-06T01:24:52;19.10;54.30
19248;DHT22;9758;48.640;8.148;2023-08-06T01:27:24;19.20;54.40
19248;DHT22;9758;48.640;8.148;2023-08-06T01:29:59;19.20;54.40
19248;DHT22;9758;48.640;8.148;2023-08-06T01:32:30;19.20;54.40
19248;DHT22;9758;48.640;8.148;2023-08-06T01:35:00;19.20;54.40
19248;DHT22;9758;48.640;8.148;2023-08-06T01:37:29;19.20;54.30
19248;DHT22;9758;48.640;8.148;2023-08-06T01:39:56;19.20;54.30
19248;DHT22;9758;48.640;8.148;2023-08-06T01:42:23;19.20;54.30
19248;DHT22;9758;48.640;8.148;2023-08-06T01:44:50;19.20;54.30
19248;DHT22;9758;48.640;8.148;2023-08-06T01:47:17;19.10;54.30
19248;DHT22;9758;48.640;8.148;2023-08-06T01:49:44;19.10;54.40
19248;DHT22;9758;48.640;8.148;2023-08-06T01:52:10;19.10;54.40
19248;DHT22;9758;48.640;8.148;2023-08-06T01:54:39;19.10;54.40
19248;DHT22;9758;48.640;8.148;2023-08-06T01:57:06;19.10;54.50
19248;DHT22;9758;48.640;8.148;2023-08-06T01:59:33;19.10;54.50
19248;DHT22;9758;48.640;8.148;2023-08-06T02:02:00;19.10;54.50
19248;DHT22;9758;48.640;8.148;2023-08-06T02:04:27;19.00;54.50
19248;DHT22;9758;48.640;8.148;2023-08-06T02:06:53;19.00;54.60
19248;DHT22;9758;48.640;8.148;2023-08-06T02:09:20;18.90;54.60
19248;DHT22;9758;48.640;8.148;2023-08-06T02:11:49;18.90;54.60
19248;DHT22;9758;48.640;8.148;2023-08-06T02:14:17;18.90;54.80
19248;DHT22;9758;48.640;8.148;2023-08-06T02:16:45;18.80;54.70
19248;DHT22;9758;48.640;8.148;2023-08-06T02:19:13;18.80;54.80
19248;DHT22;9758;48.640;8.148;2023-08-06T02:21:41;18.80;54.80
19248;DHT22;9758;48.640;8.148;2023-08-06T02:24:09;18.80;54.80
19248;DHT22;9758;48.640;8.148;2023-08-06T02:26:36;18.80;54.80
19248;DHT22;9758;48.640;8.148;2023-08-06T02:29:05;18.70;54.80
19248;DHT22;9758;48.640;8.148;2023-08-06T02:31:34;18.70;54.90
19248;DHT22;9758;48.640;8.148;2023-08-06T02:34:07;18.60;54.90
19248;DHT22;9758;48.640;8.148;2023-08-06T02:36:37;18.60;55.00
19248;DHT22;9758;48.640;8.148;2023-08-06T02:39:15;18.50;55.60
19248;DHT22;9758;48.640;8.148;2023-08-06T02:42:05;18.30;55.20
19248;DHT22;9758;48.640;8.148;2023-08-06T02:44:52;18.20;55.40
19248;DHT22;9758;48.640;8.148;2023-08-06T02:47:21;18.20;55.70
19248;DHT22;9758;48.640;8.148;2023-08-06T02:49:48;18.20;55.70
19248;DHT22;9758;48.640;8.148;2023-08-06T02:52:16;18.20;55.60
19248;DHT22;9758;48.640;8.148;2023-08-06T02:55:11;18.20;55.60
19248;DHT22;9758;48.640;8.148;2023-08-06T02:58:09;18.10;55.60
19248;DHT22;9758;48.640;8.148;2023-08-06T03:01:05;18.10;55.70
19248;DHT22;9758;48.640;8.148;2023-08-06T03:03:33;18.00;55.80
19248;DHT22;9758;48.640;8.148;2023-08-06T03:06:01;18.00;55.80
19248;DHT22;9758;48.640;8.148;2023-08-06T03:08:28;17.90;56.00
19248;DHT22;9758;48.640;8.148;2023-08-06T03:10:55;17.90;55.80
19248;DHT22;9758;48.640;8.148;2023-08-06T03:13:22;17.90;55.90
19248;DHT22;9758;48.640;8.148;2023-08-06T03:15:53;17.90;55.90
19248;DHT22;9758;48.640;8.148;2023-08-06T03:21:51;17.90;56.00
19248;DHT22;9758;48.640;8.148;2023-08-06T03:24:39;17.90;55.90
19248;DHT22;9758;48.640;8.148;2023-08-06T03:27:06;17.90;55.80
19248;DHT22;9758;48.640;8.148;2023-08-06T03:29:34;17.90;55.80
19248;DHT22;9758;48.640;8.148;2023-08-06T03:32:01;17.90;55.90
19248;DHT22;9758;48.640;8.148;2023-08-06T03:34:31;17.90;55.80
19248;DHT22;9758;48.640;8.148;2023-08-06T03:37:01;17.90;55.80
19248;DHT22;9758;48.640;8.148;2023-08-06T03:39:31;17.90;55.80
19248;DHT22;9758;48.640;8.148;2023-08-06T03:41:59;17.90;55.80
19248;DHT22;9758;48.640;8.148;2023-08-06T03:44:27;17.90;55.80
19248;DHT22;9758;48.640;8.148;2023-08-06T03:46:56;17.90;55.80
19248;DHT22;9758;48.640;8.148;2023-08-06T03:49:23;17.90;55.80
19248;DHT22;9758;48.640;8.148;2023-08-06T03:51:53;17.90;55.80
19248;DHT22;9758;48.640;8.148;2023-08-06T03:54:22;17.80;55.90
19248;DHT22;9758;48.640;8.148;2023-08-06T03:56:52;17.80;56.00
19248;DHT22;9758;48.640;8.148;2023-08-06T03:59:27;17.80;56.00
19248;DHT22;9758;48.640;8.148;2023-08-06T04:01:56;17.70;56.00
19248;DHT22;9758;48.640;8.148;2023-08-06T04:04:24;17.70;56.00
19248;DHT22;9758;48.640;8.148;2023-08-06T04:06:52;17.70;56.10
19248;DHT22;9758;48.640;8.148;2023-08-06T04:09:19;17.60;55.90
19248;DHT22;9758;48.640;8.148;2023-08-06T04:11:46;17.60;56.10
19248;DHT22;9758;48.640;8.148;2023-08-06T04:14:14;17.50;56.10
19248;DHT22;9758;48.640;8.148;2023-08-06T04:16:48;17.50;56.10
19248;DHT22;9758;48.640;8.148;2023-08-06T04:19:16;17.50;56.10
19248;DHT22;9758;48.640;8.148;2023-08-06T04:21:46;17.50;56.20
19248;DHT22;9758;48.640;8.148;2023-08-06T04:24:16;17.50;56.30
19248;DHT22;9758;48.640;8.148;2023-08-06T04:26:49;17.50;56.20
19248;DHT22;9758;48.640;8.148;2023-08-06T04:29:16;17.50;56.20
19248;DHT22;9758;48.640;8.148;2023-08-06T04:31:43;17.40;56.90
19248;DHT22;9758;48.640;8.148;2023-08-06T04:34:15;17.40;56.30
19248;DHT22;9758;48.640;8.148;2023-08-06T04:36:42;17.40;56.40
19248;DHT22;9758;48.640;8.148;2023-08-06T04:39:09;17.30;56.50
19248;DHT22;9758;48.640;8.148;2023-08-06T04:41:38;17.30;56.50
19248;DHT22;9758;48.640;8.148;2023-08-06T04:44:05;17.30;56.60
19248;DHT22;9758;48.640;8.148;2023-08-06T04:46:33;17.30;56.70
19248;DHT22;9758;48.640;8.148;2023-08-06T04:49:00;17.30;56.60
19248;DHT22;9758;48.640;8.148;2023-08-06T04:51:27;17.20;56.60
19248;DHT22;9758;48.640;8.148;2023-08-06T04:53:53;17.20;56.60
19248;DHT22;9758;48.640;8.148;2023-08-06T04:56:20;17.20;56.70
19248;DHT22;9758;48.640;8.148;2023-08-06T04:58:52;17.20;56.60
19248;DHT22;9758;48.640;8.148;2023-08-06T05:01:22;17.20;56.60
19248;DHT22;9758;48.640;8.148;2023-08-06T05:03:50;17.30;56.70
19248;DHT22;9758;48.640;8.148;2023-08-06T05:06:16;17.20;56.60
19248;DHT22;9758;48.640;8.148;2023-08-06T05:08:44;17.20;56.60
19248;DHT22;9758;48.640;8.148;2023-08-06T05:11:11;17.20;56.60
19248;DHT22;9758;48.640;8.148;2023-08-06T05:13:38;17.10;56.60
19248;DHT22;9758;48.640;8.148;2023-08-06T05:16:06;17.10;56.70
19248;DHT22;9758;48.640;8.148;2023-08-06T05:18:34;17.00;56.80
19248;DHT22;9758;48.640;8.148;2023-08-06T05:21:13;17.00;57.00
19248;DHT22;9758;48.640;8.148;2023-08-06T05:23:44;17.00;56.90
19248;DHT22;9758;48.640;8.148;2023-08-06T05:26:11;17.00;56.90
19248;DHT22;9758;48.640;8.148;2023-08-06T05:28:40;16.90;56.90
19248;DHT22;9758;48.640;8.148;2023-08-06T05:31:10;16.90;56.90
19248;DHT22;9758;48.640;8.148;2023-08-06T05:33:43;16.90;57.10
19248;DHT22;9758;48.640;8.148;2023-08-06T05:36:10;16.80;57.10
19248;DHT22;9758;48.640;8.148;2023-08-06T05:38:37;16.90;57.10
19248;DHT22;9758;48.640;8.148;2023-08-06T05:41:08;16.90;57.10
19248;DHT22;9758;48.640;8.148;2023-08-06T05:43:36;16.90;57.10
19248;DHT22;9758;48.640;8.148;2023-08-06T05:46:03;17.00;57.10
19248;DHT22;9758;48.640;8.148;2023-08-06T05:48:32;17.00;57.00
19248;DHT22;9758;48.640;8.148;2023-08-06T05:51:06;17.00;56.90
19248;DHT22;9758;48.640;8.148;2023-08-06T05:53:34;17.00;57.60
19248;DHT22;9758;48.640;8.148;2023-08-06T05:56:05;16.90;57.00
19248;DHT22;9758;48.640;8.148;2023-08-06T05:58:50;16.90;57.00
19248;DHT22;9758;48.640;8.148;2023-08-06T06:01:20;16.90;57.10
19248;DHT22;9758;48.640;8.148;2023-08-06T06:03:59;16.90;57.00
19248;DHT22;9758;48.640;8.148;2023-08-06T06:06:30;16.90;57.00
19248;DHT22;9758;48.640;8.148;2023-08-06T06:09:21;16.80;57.20
19248;DHT22;9758;48.640;8.148;2023-08-06T06:12:15;16.80;57.80
19248;DHT22;9758;48.640;8.148;2023-08-06T06:14:43;16.70;57.20
19248;DHT22;9758;48.640;8.148;2023-08-06T06:17:10;16.70;57.60
19248;DHT22;9758;48.640;8.148;2023-08-06T06:19:41;16.70;57.40
19248;DHT22;9758;48.640;8.148;2023-08-06T06:22:23;16.80;57.30
19248;DHT22;9758;48.640;8.148;2023-08-06T06:24:50;16.80;57.40
19248;DHT22;9758;48.640;8.148;2023-08-06T06:27:18;16.80;57.40
19248;DHT22;9758;48.640;8.148;2023-08-06T06:29:46;16.70;57.30
19248;DHT22;9758;48.640;8.148;2023-08-06T06:32:12;16.70;57.50
19248;DHT22;9758;48.640;8.148;2023-08-06T06:34:41;16.70;57.40
19248;DHT22;9758;48.640;8.148;2023-08-06T06:37:08;16.70;57.70
19248;DHT22;9758;48.640;8.148;2023-08-06T06:39:35;16.70;57.50
19248;DHT22;9758;48.640;8.148;2023-08-06T06:42:02;16.80;57.50
19248;DHT22;9758;48.640;8.148;2023-08-06T06:44:31;16.70;57.40
19248;DHT22;9758;48.640;8.148;2023-08-06T06:47:13;16.70;57.50
19248;DHT22;9758;48.640;8.148;2023-08-06T06:49:42;16.80;57.50
19248;DHT22;9758;48.640;8.148;2023-08-06T06:52:09;16.80;57.50
19248;DHT22;9758;48.640;8.148;2023-08-06T06:54:36;16.80;57.70
19248;DHT22;9758;48.640;8.148;2023-08-06T06:57:04;16.80;57.40
19248;DHT22;9758;48.640;8.148;2023-08-06T06:59:31;16.80;57.40
19248;DHT22;9758;48.640;8.148;2023-08-06T07:01:58;16.90;57.60
19248;DHT22;9758;48.640;8.148;2023-08-06T07:04:25;16.90;57.50
19248;DHT22;9758;48.640;8.148;2023-08-06T07:06:53;16.90;57.40
19248;DHT22;9758;48.640;8.148;2023-08-06T07:09:23;16.90;57.40
19248;DHT22;9758;48.640;8.148;2023-08-06T07:11:49;16.90;57.40
19248;DHT22;9758;48.640;8.148;2023-08-06T07:14:17;17.00;57.40
19248;DHT22;9758;48.640;8.148;2023-08-06T07:16:44;17.00;57.50
19248;DHT22;9758;48.640;8.148;2023-08-06T07:19:11;17.00;57.50
19248;DHT22;9758;48.640;8.148;2023-08-06T07:21:37;17.00;57.30
19248;DHT22;9758;48.640;8.148;2023-08-06T07:24:06;17.00;57.40
19248;DHT22;9758;48.640;8.148;2023-08-06T07:26:32;17.00;57.40
19248;DHT22;9758;48.640;8.148;2023-08-06T07:29:00;17.00;57.50
19248;DHT22;9758;48.640;8.148;2023-08-06T07:31:28;16.90;57.40
19248;DHT22;9758;48.640;8.148;2023-08-06T07:33:57;16.90;57.50
19248;DHT22;9758;48.640;8.148;2023-08-06T07:36:24;17.00;57.40
19248;DHT22;9758;48.640;8.148;2023-08-06T07:38:51;17.00;57.40
19248;DHT22;9758;48.640;8.148;2023-08-06T07:41:22;16.90;57.30
19248;DHT22;9758;48.640;8.148;2023-08-06T07:43:49;16.90;57.60
19248;DHT22;9758;48.640;8.148;2023-08-06T07:46:16;16.90;57.60
19248;DHT22;9758;48.640;8.148;2023-08-06T07:48:43;16.90;57.50
19248;DHT22;9758;48.640;8.148;2023-08-06T07:51:10;17.00;57.60
19248;DHT22;9758;48.640;8.148;2023-08-06T07:53:37;17.00;58.10
19248;DHT22;9758;48.640;8.148;2023-08-06T07:56:04;17.00;57.50
19248;DHT22;9758;48.640;8.148;2023-08-06T07:58:32;17.00;57.60
19248;DHT22;9758;48.640;8.148;2023-08-06T08:00:59;17.00;57.60
19248;DHT22;9758;48.640;8.148;2023-08-06T08:03:26;17.00;57.70
19248;DHT22;9758;48.640;8.148;2023-08-06T08:05:55;17.00;57.60
19248;DHT22;9758;48.640;8.148;2023-08-06T08:08:23;17.00;57.70
19248;DHT22;9758;48.640;8.148;2023-08-06T08:10:50;17.00;57.60
19248;DHT22;9758;48.640;8.148;2023-08-06T08:13:17;17.00;57.60
19248;DHT22;9758;48.640;8.148;2023-08-06T08:15:45;17.10;57.60
19248;DHT22;9758;48.640;8.148;2023-08-06T08:18:12;17.10;58.00
19248;DHT22;9758;48.640;8.148;2023-08-06T08:20:41;17.10;57.70
19248;DHT22;9758;48.640;8.148;2023-08-06T08:23:14;17.10;57.80
19248;DHT22;9758;48.640;8.148;2023-08-06T08:25:43;17.00;57.70
19248;DHT22;9758;48.640;8.148;2023-08-06T08:28:11;17.00;57.70
19248;DHT22;9758;48.640;8.148;2023-08-06T08:30:41;17.00;57.80
19248;DHT22;9758;48.640;8.148;2023-08-06T08:33:10;17.00;57.70
19248;DHT22;9758;48.640;8.148;2023-08-06T08:35:38;16.90;57.70
19248;DHT22;9758;48.640;8.148;2023-08-06T08:38:15;16.80;57.80
19248;DHT22;9758;48.640;8.148;2023-08-06T08:40:46;16.80;57.90
19248;DHT22;9758;48.640;8.148;2023-08-06T08:43:16;16.80;58.00
19248;DHT22;9758;48.640;8.148;2023-08-06T08:45:49;16.80;58.00
19248;DHT22;9758;48.640;8.148;2023-08-06T08:48:23;16.80;58.10
19248;DHT22;9758;48.640;8.148;2023-08-06T08:51:06;16.90;58.10
19248;DHT22;9758;48.640;8.148;2023-08-06T08:53:36;16.90;57.90
19248;DHT22;9758;48.640;8.148;2023-08-06T08:56:08;16.90;57.90
19248;DHT22;9758;48.640;8.148;2023-08-06T08:58:39;16.90;58.00
19248;DHT22;9758;48.640;8.148;2023-08-06T09:01:07;16.80;57.90
19248;DHT22;9758;48.640;8.148;2023-08-06T09:03:50;16.80;58.00
19248;DHT22;9758;48.640;8.148;2023-08-06T09:06:19;16.80;58.00
19248;DHT22;9758;48.640;8.148;2023-08-06T09:08:51;16.80;58.00
19248;DHT22;9758;48.640;8.148;2023-08-06T09:11:20;16.80;58.10
19248;DHT22;9758;48.640;8.148;2023-08-06T09:13:48;16.70;58.20
19248;DHT22;9758;48.640;8.148;2023-08-06T09:16:31;16.70;58.30
19248;DHT22;9758;48.640;8.148;2023-08-06T09:19:07;16.70;58.30
19248;DHT22;9758;48.640;8.148;2023-08-06T09:21:42;16.80;58.50
19248;DHT22;9758;48.640;8.148;2023-08-06T09:24:14;16.80;58.20
19248;DHT22;9758;48.640;8.148;2023-08-06T09:26:44;16.80;58.30
19248;DHT22;9758;48.640;8.148;2023-08-06T09:29:12;16.80;58.20
19248;DHT22;9758;48.640;8.148;2023-08-06T09:31:43;16.80;58.20
19248;DHT22;9758;48.640;8.148;2023-08-06T09:34:19;16.90;58.30
19248;DHT22;9758;48.640;8.148;2023-08-06T09:36:48;16.80;58.40
19248;DHT22;9758;48.640;8.148;2023-08-06T09:39:17;16.80;58.20
19248;DHT22;9758;48.640;8.148;2023-08-06T09:41:45;16.80;58.20
19248;DHT22;9758;48.640;8.148;2023-08-06T09:44:20;16.80;58.40
19248;DHT22;9758;48.640;8.148;2023-08-06T09:46:51;16.80;58.40
19248;DHT22;9758;48.640;8.148;2023-08-06T09:49:24;16.80;58.50
19248;DHT22;9758;48.640;8.148;2023-08-06T09:51:55;16.80;58.50
19248;DHT22;9758;48.640;8.148;2023-08-06T09:54:25;16.80;58.50
19248;DHT22;9758;48.640;8.148;2023-08-06T09:57:03;16.80;58.40
19248;DHT22;9758;48.640;8.148;2023-08-06T10:00:02;16.80;58.60
19248;DHT22;9758;48.640;8.148;2023-08-06T10:02:34;16.70;58.40
19248;DHT22;9758;48.640;8.148;2023-08-06T10:05:27;16.80;58.70
19248;DHT22;9758;48.640;8.148;2023-08-06T10:08:15;16.80;58.60
19248;DHT22;9758;48.640;8.148;2023-08-06T10:10:58;16.80;58.60
19248;DHT22;9758;48.640;8.148;2023-08-06T10:13:51;16.80;58.70
19248;DHT22;9758;48.640;8.148;2023-08-06T10:16:39;16.80;58.60
19248;DHT22;9758;48.640;8.148;2023-08-06T10:19:26;16.70;58.80
19248;DHT22;9758;48.640;8.148;2023-08-06T10:22:27;16.70;58.70
19248;DHT22;9758;48.640;8.148;2023-08-06T10:25:18;16.60;58.80
19248;DHT22;9758;48.640;8.148;2023-08-06T10:28:07;16.70;59.00
19248;DHT22;9758;48.640;8.148;2023-08-06T10:30:45;16.60;59.00
19248;DHT22;9758;48.640;8.148;2023-08-06T10:33:18;16.60;59.00
19248;DHT22;9758;48.640;8.148;2023-08-06T10:35:47;16.50;59.30
19248;DHT22;9758;48.640;8.148;2023-08-06T10:38:18;16.50;59.50
19248;DHT22;9758;48.640;8.148;2023-08-06T10:40:50;16.40;59.50
19248;DHT22;9758;48.640;8.148;2023-08-06T10:43:27;16.40;59.50
19248;DHT22;9758;48.640;8.148;2023-08-06T10:45:55;16.40;59.70
19248;DHT22;9758;48.640;8.148;2023-08-06T10:48:30;16.30;59.60
19248;DHT22;9758;48.640;8.148;2023-08-06T10:50:59;16.30;59.70
19248;DHT22;9758;48.640;8.148;2023-08-06T10:56:44;16.30;59.60
19248;DHT22;9758;48.640;8.148;2023-08-06T10:59:15;16.30;59.60
19248;DHT22;9758;48.640;8.148;2023-08-06T11:01:42;16.30;59.40
19248;DHT22;9758;48.640;8.148;2023-08-06T11:04:09;16.40;59.50
19248;DHT22;9758;48.640;8.148;2023-08-06T11:06:42;16.30;59.40
19248;DHT22;9758;48.640;8.148;2023-08-06T11:09:09;16.30;59.30
19248;DHT22;9758;48.640;8.148;2023-08-06T11:11:37;16.30;59.30
19248;DHT22;9758;48.640;8.148;2023-08-06T11:14:15;16.30;59.50
19248;DHT22;9758;48.640;8.148;2023-08-06T11:16:41;16.30;59.20
19248;DHT22;9758;48.640;8.148;2023-08-06T11:19:09;16.30;59.40
19248;DHT22;9758;48.640;8.148;2023-08-06T11:21:35;16.20;59.30
19248;DHT22;9758;48.640;8.148;2023-08-06T11:24:02;16.30;59.50
19248;DHT22;9758;48.640;8.148;2023-08-06T11:26:29;16.30;59.50
19248;DHT22;9758;48.640;8.148;2023-08-06T11:28:57;16.30;59.40
19248;DHT22;9758;48.640;8.148;2023-08-06T11:31:39;16.30;59.30
19248;DHT22;9758;48.640;8.148;2023-08-06T11:34:06;16.30;59.30
19248;DHT22;9758;48.640;8.148;2023-08-06T11:36:39;16.40;59.20
19248;DHT22;9758;48.640;8.148;2023-08-06T11:39:15;16.40;59.10
19248;DHT22;9758;48.640;8.148;2023-08-06T11:41:52;16.40;59.10
19248;DHT22;9758;48.640;8.148;2023-08-06T11:44:46;16.40;59.20
19248;DHT22;9758;48.640;8.148;2023-08-06T11:47:16;16.50;59.20
19248;DHT22;9758;48.640;8.148;2023-08-06T11:49:45;16.50;59.00
19248;DHT22;9758;48.640;8.148;2023-08-06T11:52:17;16.50;58.90
19248;DHT22;9758;48.640;8.148;2023-08-06T11:54:46;16.60;58.90
19248;DHT22;9758;48.640;8.148;2023-08-06T11:57:13;16.60;58.90
19248;DHT22;9758;48.640;8.148;2023-08-06T11:59:40;16.60;58.80
19248;DHT22;9758;48.640;8.148;2023-08-06T12:02:09;16.70;58.80
19248;DHT22;9758;48.640;8.148;2023-08-06T12:05:03;16.70;58.80
19248;DHT22;9758;48.640;8.148;2023-08-06T12:07:31;16.70;58.90
19248;DHT22;9758;48.640;8.148;2023-08-06T12:09:59;16.70;58.90
19248;DHT22;9758;48.640;8.148;2023-08-06T12:12:26;16.70;58.90
19248;DHT22;9758;48.640;8.148;2023-08-06T12:14:54;16.60;58.90
19248;DHT22;9758;48.640;8.148;2023-08-06T12:17:21;16.70;58.90
19248;DHT22;9758;48.640;8.148;2023-08-06T12:19:48;16.70;58.90
19248;DHT22;9758;48.640;8.148;2023-08-06T12:22:16;16.70;58.90
19248;DHT22;9758;48.640;8.148;2023-08-06T12:24:45;16.80;58.90
19248;DHT22;9758;48.640;8.148;2023-08-06T12:27:12;16.90;58.80
19248;DHT22;9758;48.640;8.148;2023-08-06T12:29:41;17.00;58.70
19248;DHT22;9758;48.640;8.148;2023-08-06T12:32:08;17.00;58.60
19248;DHT22;9758;48.640;8.148;2023-08-06T12:34:35;17.00;58.60
19248;DHT22;9758;48.640;8.148;2023-08-06T12:37:02;17.00;58.60
19248;DHT22;9758;48.640;8.148;2023-08-06T12:39:31;17.00;58.60
19248;DHT22;9758;48.640;8.148;2023-08-06T12:41:58;17.00;58.60
19248;DHT22;9758;48.640;8.148;2023-08-06T12:44:25;17.00;58.50
19248;DHT22;9758;48.640;8.148;2023-08-06T12:46:53;17.00;58.60
19248;DHT22;9758;48.640;8.148;2023-08-06T12:49:20;17.00;58.60
19248;DHT22;9758;48.640;8.148;2023-08-06T12:51:47;17.00;58.60
19248;DHT22;9758;48.640;8.148;2023-08-06T12:54:15;17.00;58.80
19248;DHT22;9758;48.640;8.148;2023-08-06T12:56:44;17.10;58.90
19248;DHT22;9758;48.640;8.148;2023-08-06T12:59:11;17.10;58.80
19248;DHT22;9758;48.640;8.148;2023-08-06T13:01:38;17.20;58.80
19248;DHT22;9758;48.640;8.148;2023-08-06T13:04:05;17.30;58.80
19248;DHT22;9758;48.640;8.148;2023-08-06T13:06:31;17.40;58.70
19248;DHT22;9758;48.640;8.148;2023-08-06T13:09:01;17.40;58.50
19248;DHT22;9758;48.640;8.148;2023-08-06T13:11:28;17.50;58.40
19248;DHT22;9758;48.640;8.148;2023-08-06T13:13:59;17.60;58.40
19248;DHT22;9758;48.640;8.148;2023-08-06T13:16:25;17.70;58.30
19248;DHT22;9758;48.640;8.148;2023-08-06T13:18:53;17.70;58.30
19248;DHT22;9758;48.640;8.148;2023-08-06T13:21:20;17.80;58.10
19248;DHT22;9758;48.640;8.148;2023-08-06T13:23:47;17.80;58.00
19248;DHT22;9758;48.640;8.148;2023-08-06T13:26:14;17.80;58.00
19248;DHT22;9758;48.640;8.148;2023-08-06T13:28:41;17.70;58.00
19248;DHT22;9758;48.640;8.148;2023-08-06T13:31:09;17.70;58.00
19248;DHT22;9758;48.640;8.148;2023-08-06T13:33:36;17.70;58.10
19248;DHT22;9758;48.640;8.148;2023-08-06T13:36:03;17.70;58.20
19248;DHT22;9758;48.640;8.148;2023-08-06T13:38:30;17.60;58.20
19248;DHT22;9758;48.640;8.148;2023-08-06T13:40:57;17.60;58.20
19248;DHT22;9758;48.640;8.148;2023-08-06T13:43:24;17.60;58.30
19248;DHT22;9758;48.640;8.148;2023-08-06T13:45:51;17.60;58.50
19248;DHT22;9758;48.640;8.148;2023-08-06T13:48:20;17.60;59.10
19248;DHT22;9758;48.640;8.148;2023-08-06T13:50:47;17.60;58.50
19248;DHT22;9758;48.640;8.148;2023-08-06T13:53:14;17.60;58.40
19248;DHT22;9758;48.640;8.148;2023-08-06T13:55:41;17.60;58.60
19248;DHT22;9758;48.640;8.148;2023-08-06T13:58:07;17.70;58.70
19248;DHT22;9758;48.640;8.148;2023-08-06T14:00:35;17.80;58.60
19248;DHT22;9758;48.640;8.148;2023-08-06T14:03:02;17.90;58.50
19248;DHT22;9758;48.640;8.148;2023-08-06T14:05:30;17.90;58.30
19248;DHT22;9758;48.640;8.148;2023-08-06T14:07:57;17.90;58.20
19248;DHT22;9758;48.640;8.148;2023-08-06T14:10:24;17.90;58.10
19248;DHT22;9758;48.640;8.148;2023-08-06T14:12:50;17.90;58.10
19248;DHT22;9758;48.640;8.148;2023-08-06T14:15:17;17.90;58.00
19248;DHT22;9758;48.640;8.148;2023-08-06T14:17:48;17.80;57.90
19248;DHT22;9758;48.640;8.148;2023-08-06T14:20:15;17.80;58.00
19248;DHT22;9758;48.640;8.148;2023-08-06T14:22:43;17.70;58.10
19248;DHT22;9758;48.640;8.148;2023-08-06T14:25:10;17.70;58.30
19248;DHT22;9758;48.640;8.148;2023-08-06T14:27:37;17.70;58.40
19248;DHT22;9758;48.640;8.148;2023-08-06T14:30:05;17.70;58.30
19248;DHT22;9758;48.640;8.148;2023-08-06T14:32:32;17.70;58.20
19248;DHT22;9758;48.640;8.148;2023-08-06T14:34:59;17.80;58.20
19248;DHT22;9758;48.640;8.148;2023-08-06T14:37:26;17.80;58.10
19248;DHT22;9758;48.640;8.148;2023-08-06T14:39:54;17.80;58.10
19248;DHT22;9758;48.640;8.148;2023-08-06T14:42:21;17.90;58.20
19248;DHT22;9758;48.640;8.148;2023-08-06T14:44:48;18.00;58.20
19248;DHT22;9758;48.640;8.148;2023-08-06T14:47:15;18.10;58.20
19248;DHT22;9758;48.640;8.148;2023-08-06T14:49:42;18.10;58.10
19248;DHT22;9758;48.640;8.148;2023-08-06T14:52:12;18.20;58.00
19248;DHT22;9758;48.640;8.148;2023-08-06T14:54:39;18.30;57.90
19248;DHT22;9758;48.640;8.148;2023-08-06T14:57:08;18.40;57.70
19248;DHT22;9758;48.640;8.148;2023-08-06T14:59:35;18.40;57.40
19248;DHT22;9758;48.640;8.148;2023-08-06T15:02:02;18.30;57.20
19248;DHT22;9758;48.640;8.148;2023-08-06T15:04:29;18.30;57.00
19248;DHT22;9758;48.640;8.148;2023-08-06T15:06:56;18.20;57.10
19248;DHT22;9758;48.640;8.148;2023-08-06T15:09:23;18.10;57.20
19248;DHT22;9758;48.640;8.148;2023-08-06T15:11:49;18.10;57.40
19248;DHT22;9758;48.640;8.148;2023-08-06T15:14:18;18.00;57.40
19248;DHT22;9758;48.640;8.148;2023-08-06T15:16:46;17.80;57.50
19248;DHT22;9758;48.640;8.148;2023-08-06T15:19:13;17.80;57.70
19248;DHT22;9758;48.640;8.148;2023-08-06T15:21:40;17.70;57.80
19248;DHT22;9758;48.640;8.148;2023-08-06T15:24:08;17.70;57.90
19248;DHT22;9758;48.640;8.148;2023-08-06T15:26:35;17.70;58.00
19248;DHT22;9758;48.640;8.148;2023-08-06T15:29:02;17.80;57.90
19248;DHT22;9758;48.640;8.148;2023-08-06T15:31:37;17.80;57.80
19248;DHT22;9758;48.640;8.148;2023-08-06T15:34:04;17.80;57.80
19248;DHT22;9758;48.640;8.148;2023-08-06T15:36:32;17.80;57.70
19248;DHT22;9758;48.640;8.148;2023-08-06T15:38:58;17.80;57.80
19248;DHT22;9758;48.640;8.148;2023-08-06T15:41:25;17.80;57.60
19248;DHT22;9758;48.640;8.148;2023-08-06T15:43:52;17.70;57.50
19248;DHT22;9758;48.640;8.148;2023-08-06T15:46:19;17.70;57.60
19248;DHT22;9758;48.640;8.148;2023-08-06T15:48:47;17.70;57.70
19248;DHT22;9758;48.640;8.148;2023-08-06T15:51:14;17.60;57.60
19248;DHT22;9758;48.640;8.148;2023-08-06T15:53:40;17.50;57.60
19248;DHT22;9758;48.640;8.148;2023-08-06T15:56:07;17.50;57.80
19248;DHT22;9758;48.640;8.148;2023-08-06T15:58:34;17.40;57.70
19248;DHT22;9758;48.640;8.148;2023-08-06T16:01:01;17.40;57.80
19248;DHT22;9758;48.640;8.148;2023-08-06T16:03:28;17.40;57.80
19248;DHT22;9758;48.640;8.148;2023-08-06T16:05:57;17.40;57.90
19248;DHT22;9758;48.640;8.148;2023-08-06T16:08:30;17.50;57.90